sensor_id;sensor_type;location;lat;lon;timestamp;P1;durP1;ratioP1;P2;durP2;ratioP2
17157;SDS011;37344;51.948;7.622;2022-07-10T00:00:42;1.55;;;0.82;;
17157;SDS011;37344;51.948;7.622;2022-07-10T00:03:09;1.17;;;0.60;;
17157;SDS011;37344;51.948;7.622;2022-07-10T00:05:37;2.13;;;0.70;;
17157;SDS011;37344;51.948;7.622;2022-07-10T00:08:06;2.80;;;0.65;;
17157;SDS011;37344;51.948;7.622;2022-07-10T00:10:33;1.60;;;0.70;;
17157;SDS011;37344;51.948;7.622;2022-07-10T00:13:01;3.10;;;0.70;;
17157;SDS011;37344;51.948;7.622;2022-07-10T00:15:28;1.17;;;0.50;;
17157;SDS011;37344;51.948;7.622;2022-07-10T00:17:57;1.65;;;0.57;;
17157;SDS011;37344;51.948;7.622;2022-07-10T00:20:24;2.10;;;0.50;;
17157;SDS011;37344;51.948;7.622;2022-07-10T00:22:51;1.05;;;0.40;;
17157;SDS011;37344;51.948;7.622;2022-07-10T00:25:20;1.05;;;0.60;;
17157;SDS011;37344;51.948;7.622;2022-07-10T00:27:47;1.08;;;0.60;;
17157;SDS011;37344;51.948;7.622;2022-07-10T00:30:14;1.60;;;0.80;;
17157;SDS011;37344;51.948;7.622;2022-07-10T00:32:42;1.05;;;0.65;;
17157;SDS011;37344;51.948;7.622;2022-07-10T00:35:09;0.95;;;0.63;;
17157;SDS011;37344;51.948;7.622;2022-07-10T00:37:36;1.30;;;0.60;;
17157;SDS011;37344;51.948;7.622;2022-07-10T00:40:04;3.10;;;0.70;;
17157;SDS011;37344;51.948;7.622;2022-07-10T00:42:33;1.55;;;0.55;;
17157;SDS011;37344;51.948;7.622;2022-07-10T00:45:00;2.28;;;0.60;;
17157;SDS011;37344;51.948;7.622;2022-07-10T00:47:27;1.48;;;0.75;;
17157;SDS011;37344;51.948;7.622;2022-07-10T00:49:55;2.92;;;0.57;;
17157;SDS011;37344;51.948;7.622;2022-07-10T00:52:22;1.20;;;0.50;;
17157;SDS011;37344;51.948;7.622;2022-07-10T00:54:50;0.85;;;0.68;;
17157;SDS011;37344;51.948;7.622;2022-07-10T00:57:18;1.02;;;0.55;;
17157;SDS011;37344;51.948;7.622;2022-07-10T00:59:46;0.57;;;0.50;;
17157;SDS011;37344;51.948;7.622;2022-07-10T01:02:14;1.83;;;0.77;;
17157;SDS011;37344;51.948;7.622;2022-07-10T01:04:42;1.00;;;0.70;;
17157;SDS011;37344;51.948;7.622;2022-07-10T01:07:09;1.30;;;0.63;;
17157;SDS011;37344;51.948;7.622;2022-07-10T01:09:36;1.23;;;0.57;;
17157;SDS011;37344;51.948;7.622;2022-07-10T01:12:04;2.00;;;0.80;;
17157;SDS011;37344;51.948;7.622;2022-07-10T01:14:32;0.65;;;0.50;;
17157;SDS011;37344;51.948;7.622;2022-07-10T01:17:02;1.45;;;0.50;;
17157;SDS011;37344;51.948;7.622;2022-07-10T01:19:30;2.22;;;0.55;;
17157;SDS011;37344;51.948;7.622;2022-07-10T01:21:59;0.90;;;0.50;;
17157;SDS011;37344;51.948;7.622;2022-07-10T01:24:26;1.40;;;0.60;;
17157;SDS011;37344;51.948;7.622;2022-07-10T01:26:54;1.02;;;0.50;;
17157;SDS011;37344;51.948;7.622;2022-07-10T01:29:21;3.55;;;0.60;;
17157;SDS011;37344;51.948;7.622;2022-07-10T01:31:49;2.53;;;0.70;;
17157;SDS011;37344;51.948;7.622;2022-07-10T01:34:16;1.52;;;0.60;;
17157;SDS011;37344;51.948;7.622;2022-07-10T01:36:43;1.63;;;0.47;;
17157;SDS011;37344;51.948;7.622;2022-07-10T01:39:12;2.15;;;0.70;;
17157;SDS011;37344;51.948;7.622;2022-07-10T01:41:39;1.15;;;0.50;;
17157;SDS011;37344;51.948;7.622;2022-07-10T01:44:06;1.38;;;0.60;;
17157;SDS011;37344;51.948;7.622;2022-07-10T01:46:34;1.75;;;0.55;;
17157;SDS011;37344;51.948;7.622;2022-07-10T01:49:01;1.15;;;0.80;;
17157;SDS011;37344;51.948;7.622;2022-07-10T01:51:28;1.33;;;0.50;;
17157;SDS011;37344;51.948;7.622;2022-07-10T01:53:55;0.52;;;0.50;;
17157;SDS011;37344;51.948;7.622;2022-07-10T01:56:24;0.60;;;0.43;;
17157;SDS011;37344;51.948;7.622;2022-07-10T01:58:51;0.93;;;0.50;;
17157;SDS011;37344;51.948;7.622;2022-07-10T02:01:19;1.27;;;0.50;;
17157;SDS011;37344;51.948;7.622;2022-07-10T02:03:46;1.55;;;0.57;;
17157;SDS011;37344;51.948;7.622;2022-07-10T02:06:31;1.65;;;0.80;;
17157;SDS011;37344;51.948;7.622;2022-07-10T02:08:58;3.80;;;1.00;;
17157;SDS011;37344;51.948;7.622;2022-07-10T02:11:27;0.90;;;0.50;;
17157;SDS011;37344;51.948;7.622;2022-07-10T02:13:54;1.15;;;0.50;;
17157;SDS011;37344;51.948;7.622;2022-07-10T02:16:21;1.38;;;0.70;;
17157;SDS011;37344;51.948;7.622;2022-07-10T02:18:48;1.20;;;0.60;;
17157;SDS011;37344;51.948;7.622;2022-07-10T02:21:16;1.60;;;0.50;;
17157;SDS011;37344;51.948;7.622;2022-07-10T02:23:43;3.17;;;0.70;;
17157;SDS011;37344;51.948;7.622;2022-07-10T02:26:10;1.13;;;0.52;;
17157;SDS011;37344;51.948;7.622;2022-07-10T02:28:39;1.83;;;0.55;;
17157;SDS011;37344;51.948;7.622;2022-07-10T02:31:06;1.27;;;0.57;;
17157;SDS011;37344;51.948;7.622;2022-07-10T02:33:34;1.15;;;0.40;;
17157;SDS011;37344;51.948;7.622;2022-07-10T02:36:01;2.25;;;0.40;;
17157;SDS011;37344;51.948;7.622;2022-07-10T02:38:29;2.00;;;0.63;;
17157;SDS011;37344;51.948;7.622;2022-07-10T02:40:56;1.27;;;0.52;;
17157;SDS011;37344;51.948;7.622;2022-07-10T02:43:23;1.65;;;0.57;;
17157;SDS011;37344;51.948;7.622;2022-07-10T02:45:52;0.77;;;0.57;;
17157;SDS011;37344;51.948;7.622;2022-07-10T02:48:19;2.00;;;0.70;;
17157;SDS011;37344;51.948;7.622;2022-07-10T02:50:47;1.10;;;0.50;;
17157;SDS011;37344;51.948;7.622;2022-07-10T02:53:14;0.80;;;0.57;;
17157;SDS011;37344;51.948;7.622;2022-07-10T02:55:41;0.95;;;0.50;;
17157;SDS011;37344;51.948;7.622;2022-07-10T02:58:09;1.05;;;0.63;;
17157;SDS011;37344;51.948;7.622;2022-07-10T03:00:36;3.70;;;0.80;;
17157;SDS011;37344;51.948;7.622;2022-07-10T03:03:07;1.80;;;0.55;;
17157;SDS011;37344;51.948;7.622;2022-07-10T03:05:34;1.45;;;0.50;;
17157;SDS011;37344;51.948;7.622;2022-07-10T03:08:01;1.77;;;0.80;;
17157;SDS011;37344;51.948;7.622;2022-07-10T03:10:29;1.65;;;0.60;;
17157;SDS011;37344;51.948;7.622;2022-07-10T03:12:56;1.75;;;0.80;;
17157;SDS011;37344;51.948;7.622;2022-07-10T03:15:23;1.02;;;0.50;;
17157;SDS011;37344;51.948;7.622;2022-07-10T03:17:50;1.30;;;0.50;;
17157;SDS011;37344;51.948;7.622;2022-07-10T03:20:19;3.28;;;0.80;;
17157;SDS011;37344;51.948;7.622;2022-07-10T03:22:46;3.00;;;0.90;;
17157;SDS011;37344;51.948;7.622;2022-07-10T03:25:14;0.63;;;0.50;;
17157;SDS011;37344;51.948;7.622;2022-07-10T03:27:41;1.80;;;0.65;;
17157;SDS011;37344;51.948;7.622;2022-07-10T03:30:08;1.58;;;0.73;;
17157;SDS011;37344;51.948;7.622;2022-07-10T03:32:36;2.92;;;0.60;;
17157;SDS011;37344;51.948;7.622;2022-07-10T03:35:03;1.35;;;0.57;;
17157;SDS011;37344;51.948;7.622;2022-07-10T03:37:32;0.77;;;0.50;;
17157;SDS011;37344;51.948;7.622;2022-07-10T03:39:59;1.13;;;0.68;;
17157;SDS011;37344;51.948;7.622;2022-07-10T03:42:26;1.23;;;0.40;;
17157;SDS011;37344;51.948;7.622;2022-07-10T03:44:54;1.33;;;0.70;;
17157;SDS011;37344;51.948;7.622;2022-07-10T03:47:21;0.43;;;0.40;;
17157;SDS011;37344;51.948;7.622;2022-07-10T03:49:48;2.45;;;0.80;;
17157;SDS011;37344;51.948;7.622;2022-07-10T03:52:16;2.08;;;0.50;;
17157;SDS011;37344;51.948;7.622;2022-07-10T03:54:44;0.80;;;0.50;;
17157;SDS011;37344;51.948;7.622;2022-07-10T03:57:11;3.17;;;0.60;;
17157;SDS011;37344;51.948;7.622;2022-07-10T03:59:56;1.50;;;0.57;;
17157;SDS011;37344;51.948;7.622;2022-07-10T04:02:23;4.10;;;1.08;;
17157;SDS011;37344;51.948;7.622;2022-07-10T04:04:51;2.25;;;0.50;;
17157;SDS011;37344;51.948;7.622;2022-07-10T04:07:18;2.40;;;0.70;;
17157;SDS011;37344;51.948;7.622;2022-07-10T04:09:47;3.70;;;0.57;;
17157;SDS011;37344;51.948;7.622;2022-07-10T04:12:14;1.38;;;0.52;;
17157;SDS011;37344;51.948;7.622;2022-07-10T04:14:41;1.63;;;0.60;;
17157;SDS011;37344;51.948;7.622;2022-07-10T04:17:09;2.05;;;0.70;;
17157;SDS011;37344;51.948;7.622;2022-07-10T04:19:36;1.73;;;0.60;;
17157;SDS011;37344;51.948;7.622;2022-07-10T04:22:03;2.53;;;0.60;;
17157;SDS011;37344;51.948;7.622;2022-07-10T04:24:30;1.17;;;0.43;;
17157;SDS011;37344;51.948;7.622;2022-07-10T04:26:59;1.05;;;0.50;;
17157;SDS011;37344;51.948;7.622;2022-07-10T04:29:26;0.68;;;0.43;;
17157;SDS011;37344;51.948;7.622;2022-07-10T04:31:54;2.22;;;0.60;;
17157;SDS011;37344;51.948;7.622;2022-07-10T04:34:22;1.65;;;0.70;;
17157;SDS011;37344;51.948;7.622;2022-07-10T04:36:50;2.10;;;0.60;;
17157;SDS011;37344;51.948;7.622;2022-07-10T04:39:17;1.77;;;0.57;;
17157;SDS011;37344;51.948;7.622;2022-07-10T04:41:44;0.57;;;0.50;;
17157;SDS011;37344;51.948;7.622;2022-07-10T04:44:13;0.85;;;0.60;;
17157;SDS011;37344;51.948;7.622;2022-07-10T04:46:40;1.65;;;0.50;;
17157;SDS011;37344;51.948;7.622;2022-07-10T04:49:07;2.33;;;0.60;;
17157;SDS011;37344;51.948;7.622;2022-07-10T04:51:34;1.95;;;0.80;;
17157;SDS011;37344;51.948;7.622;2022-07-10T04:54:02;1.70;;;0.70;;
17157;SDS011;37344;51.948;7.622;2022-07-10T04:56:29;0.90;;;0.50;;
17157;SDS011;37344;51.948;7.622;2022-07-10T04:58:57;1.73;;;0.65;;
17157;SDS011;37344;51.948;7.622;2022-07-10T05:01:25;1.40;;;0.68;;
17157;SDS011;37344;51.948;7.622;2022-07-10T05:03:52;2.20;;;0.63;;
17157;SDS011;37344;51.948;7.622;2022-07-10T05:06:20;1.52;;;0.50;;
17157;SDS011;37344;51.948;7.622;2022-07-10T05:08:47;1.10;;;0.50;;
17157;SDS011;37344;51.948;7.622;2022-07-10T05:11:14;1.88;;;0.50;;
17157;SDS011;37344;51.948;7.622;2022-07-10T05:13:41;1.92;;;0.60;;
17157;SDS011;37344;51.948;7.622;2022-07-10T05:16:11;1.08;;;0.60;;
17157;SDS011;37344;51.948;7.622;2022-07-10T05:18:40;1.60;;;0.68;;
17157;SDS011;37344;51.948;7.622;2022-07-10T05:21:07;0.95;;;0.60;;
17157;SDS011;37344;51.948;7.622;2022-07-10T05:23:36;1.92;;;0.55;;
17157;SDS011;37344;51.948;7.622;2022-07-10T05:26:04;2.78;;;0.70;;
17157;SDS011;37344;51.948;7.622;2022-07-10T07:14:22;3.00;;;0.60;;
17157;SDS011;37344;51.948;7.622;2022-07-10T07:16:50;1.38;;;0.60;;
17157;SDS011;37344;51.948;7.622;2022-07-10T07:19:25;1.25;;;0.60;;
17157;SDS011;37344;51.948;7.622;2022-07-10T07:21:57;2.67;;;0.88;;
17157;SDS011;37344;51.948;7.622;2022-07-10T07:24:42;9.30;;;0.82;;
17157;SDS011;37344;51.948;7.622;2022-07-10T07:27:10;1.13;;;0.57;;
17157;SDS011;37344;51.948;7.622;2022-07-10T07:29:38;1.63;;;0.60;;
17157;SDS011;37344;51.948;7.622;2022-07-10T07:32:06;2.40;;;0.73;;
17157;SDS011;37344;51.948;7.622;2022-07-10T07:34:33;2.95;;;0.63;;
17157;SDS011;37344;51.948;7.622;2022-07-10T07:37:01;3.20;;;0.70;;
17157;SDS011;37344;51.948;7.622;2022-07-10T07:39:28;1.42;;;0.88;;
17157;SDS011;37344;51.948;7.622;2022-07-10T08:11:21;1.60;;;0.60;;
17157;SDS011;37344;51.948;7.622;2022-07-10T08:13:48;4.50;;;0.93;;
17157;SDS011;37344;51.948;7.622;2022-07-10T08:16:15;1.15;;;0.50;;
17157;SDS011;37344;51.948;7.622;2022-07-10T08:18:43;4.32;;;0.65;;
17157;SDS011;37344;51.948;7.622;2022-07-10T08:21:10;3.10;;;0.77;;
17157;SDS011;37344;51.948;7.622;2022-07-10T08:23:37;3.35;;;0.95;;
17157;SDS011;37344;51.948;7.622;2022-07-10T08:26:05;1.17;;;0.65;;
17157;SDS011;37344;51.948;7.622;2022-07-10T08:28:33;2.97;;;0.88;;
17157;SDS011;37344;51.948;7.622;2022-07-10T08:31:00;1.65;;;0.60;;
17157;SDS011;37344;51.948;7.622;2022-07-10T08:33:28;1.48;;;0.70;;
17157;SDS011;37344;51.948;7.622;2022-07-10T08:35:55;1.65;;;0.60;;
17157;SDS011;37344;51.948;7.622;2022-07-10T08:38:25;0.88;;;0.60;;
17157;SDS011;37344;51.948;7.622;2022-07-10T08:40:53;2.72;;;0.82;;
17157;SDS011;37344;51.948;7.622;2022-07-10T08:43:22;1.95;;;0.73;;
17157;SDS011;37344;51.948;7.622;2022-07-10T08:45:51;2.42;;;0.68;;
17157;SDS011;37344;51.948;7.622;2022-07-10T08:48:21;3.17;;;0.80;;
17157;SDS011;37344;51.948;7.622;2022-07-10T08:50:51;2.08;;;0.70;;
17157;SDS011;37344;51.948;7.622;2022-07-10T08:53:22;1.58;;;0.50;;
17157;SDS011;37344;51.948;7.622;2022-07-10T08:55:50;1.88;;;0.70;;
17157;SDS011;37344;51.948;7.622;2022-07-10T08:58:17;2.67;;;0.77;;
17157;SDS011;37344;51.948;7.622;2022-07-10T09:00:45;2.83;;;0.70;;
17157;SDS011;37344;51.948;7.622;2022-07-10T09:03:13;1.52;;;0.65;;
17157;SDS011;37344;51.948;7.622;2022-07-10T09:05:41;1.48;;;0.50;;
17157;SDS011;37344;51.948;7.622;2022-07-10T09:08:20;2.30;;;0.60;;
17157;SDS011;37344;51.948;7.622;2022-07-10T09:10:48;1.50;;;0.77;;
17157;SDS011;37344;51.948;7.622;2022-07-10T09:13:16;1.00;;;0.45;;
17157;SDS011;37344;51.948;7.622;2022-07-10T09:15:47;2.38;;;0.63;;
17157;SDS011;37344;51.948;7.622;2022-07-10T09:18:19;2.95;;;0.60;;
17157;SDS011;37344;51.948;7.622;2022-07-10T09:20:51;2.00;;;0.90;;
17157;SDS011;37344;51.948;7.622;2022-07-10T09:23:19;1.25;;;0.60;;
17157;SDS011;37344;51.948;7.622;2022-07-10T09:38:21;0.80;;;0.60;;
17157;SDS011;37344;51.948;7.622;2022-07-10T09:40:48;2.00;;;0.80;;
17157;SDS011;37344;51.948;7.622;2022-07-10T09:43:15;1.45;;;0.68;;
17157;SDS011;37344;51.948;7.622;2022-07-10T09:45:43;2.03;;;0.70;;
17157;SDS011;37344;51.948;7.622;2022-07-10T09:48:10;2.13;;;0.57;;
17157;SDS011;37344;51.948;7.622;2022-07-10T09:50:40;1.25;;;0.70;;
17157;SDS011;37344;51.948;7.622;2022-07-10T09:53:07;1.17;;;0.70;;
17157;SDS011;37344;51.948;7.622;2022-07-10T09:55:36;2.83;;;0.80;;
17157;SDS011;37344;51.948;7.622;2022-07-10T09:58:04;1.17;;;0.50;;
17157;SDS011;37344;51.948;7.622;2022-07-10T10:00:32;2.17;;;0.63;;
17157;SDS011;37344;51.948;7.622;2022-07-10T10:03:01;2.65;;;0.73;;
17157;SDS011;37344;51.948;7.622;2022-07-10T10:05:37;1.20;;;0.70;;
17157;SDS011;37344;51.948;7.622;2022-07-10T10:08:09;0.98;;;0.50;;
17157;SDS011;37344;51.948;7.622;2022-07-10T10:10:40;3.78;;;0.80;;
17157;SDS011;37344;51.948;7.622;2022-07-10T10:13:10;4.07;;;0.88;;
17157;SDS011;37344;51.948;7.622;2022-07-10T10:15:38;1.45;;;0.60;;
17157;SDS011;37344;51.948;7.622;2022-07-10T10:18:05;3.80;;;0.52;;
17157;SDS011;37344;51.948;7.622;2022-07-10T10:20:33;2.22;;;0.70;;
17157;SDS011;37344;51.948;7.622;2022-07-10T10:23:03;3.20;;;0.90;;
17157;SDS011;37344;51.948;7.622;2022-07-10T10:25:31;1.77;;;0.60;;
17157;SDS011;37344;51.948;7.622;2022-07-10T10:28:02;1.70;;;0.70;;
17157;SDS011;37344;51.948;7.622;2022-07-10T10:30:32;3.40;;;0.60;;
17157;SDS011;37344;51.948;7.622;2022-07-10T10:33:00;1.83;;;0.70;;
17157;SDS011;37344;51.948;7.622;2022-07-10T10:35:43;2.60;;;0.80;;
17157;SDS011;37344;51.948;7.622;2022-07-10T10:38:12;2.50;;;0.80;;
17157;SDS011;37344;51.948;7.622;2022-07-10T10:40:39;1.42;;;0.55;;
17157;SDS011;37344;51.948;7.622;2022-07-10T10:43:18;2.45;;;0.70;;
17157;SDS011;37344;51.948;7.622;2022-07-10T10:45:46;1.95;;;0.55;;
17157;SDS011;37344;51.948;7.622;2022-07-10T10:48:13;1.17;;;0.57;;
17157;SDS011;37344;51.948;7.622;2022-07-10T10:50:41;1.40;;;0.80;;
17157;SDS011;37344;51.948;7.622;2022-07-10T10:53:12;1.00;;;0.70;;
17157;SDS011;37344;51.948;7.622;2022-07-10T10:55:40;2.35;;;0.70;;
17157;SDS011;37344;51.948;7.622;2022-07-10T10:58:14;2.17;;;0.70;;
17157;SDS011;37344;51.948;7.622;2022-07-10T11:00:44;1.23;;;0.50;;
17157;SDS011;37344;51.948;7.622;2022-07-10T11:49:55;1.43;;;0.50;;
17157;SDS011;37344;51.948;7.622;2022-07-10T11:52:22;1.70;;;0.60;;
17157;SDS011;37344;51.948;7.622;2022-07-10T11:54:49;2.70;;;0.90;;
17157;SDS011;37344;51.948;7.622;2022-07-10T12:46:26;0.70;;;0.50;;
17157;SDS011;37344;51.948;7.622;2022-07-10T12:49:03;0.80;;;0.52;;
17157;SDS011;37344;51.948;7.622;2022-07-10T12:51:31;1.30;;;0.55;;
17157;SDS011;37344;51.948;7.622;2022-07-10T14:37:02;1.25;;;0.63;;
17157;SDS011;37344;51.948;7.622;2022-07-10T14:39:29;1.20;;;0.40;;
17157;SDS011;37344;51.948;7.622;2022-07-10T14:41:57;0.47;;;0.30;;
17157;SDS011;37344;51.948;7.622;2022-07-10T14:44:24;1.17;;;0.40;;
17157;SDS011;37344;51.948;7.622;2022-07-10T14:46:51;0.50;;;0.40;;
17157;SDS011;37344;51.948;7.622;2022-07-10T14:49:19;0.57;;;0.40;;
17157;SDS011;37344;51.948;7.622;2022-07-10T14:51:46;0.40;;;0.40;;
17157;SDS011;37344;51.948;7.622;2022-07-10T14:54:14;0.70;;;0.40;;
17157;SDS011;37344;51.948;7.622;2022-07-10T14:56:42;0.40;;;0.40;;
17157;SDS011;37344;51.948;7.622;2022-07-10T14:59:09;0.43;;;0.40;;
17157;SDS011;37344;51.948;7.622;2022-07-10T15:01:36;1.35;;;0.50;;
17157;SDS011;37344;51.948;7.622;2022-07-10T15:04:04;0.77;;;0.40;;
17157;SDS011;37344;51.948;7.622;2022-07-10T15:06:31;0.30;;;0.30;;
17157;SDS011;37344;51.948;7.622;2022-07-10T15:08:58;0.47;;;0.30;;
17157;SDS011;37344;51.948;7.622;2022-07-10T15:11:27;0.30;;;0.30;;
17157;SDS011;37344;51.948;7.622;2022-07-10T15:13:54;0.35;;;0.35;;
17157;SDS011;37344;51.948;7.622;2022-07-10T15:16:25;0.65;;;0.35;;
17157;SDS011;37344;51.948;7.622;2022-07-10T15:18:52;0.95;;;0.40;;
17157;SDS011;37344;51.948;7.622;2022-07-10T15:21:20;0.90;;;0.52;;
17157;SDS011;37344;51.948;7.622;2022-07-10T15:23:47;1.23;;;0.55;;
17157;SDS011;37344;51.948;7.622;2022-07-10T15:26:15;1.85;;;0.40;;
17157;SDS011;37344;51.948;7.622;2022-07-10T15:28:44;0.55;;;0.40;;
17157;SDS011;37344;51.948;7.622;2022-07-10T15:31:12;0.75;;;0.30;;
17157;SDS011;37344;51.948;7.622;2022-07-10T15:33:39;0.60;;;0.40;;
17157;SDS011;37344;51.948;7.622;2022-07-10T15:36:09;1.10;;;0.40;;
17157;SDS011;37344;51.948;7.622;2022-07-10T15:38:37;0.63;;;0.40;;
17157;SDS011;37344;51.948;7.622;2022-07-10T15:41:05;1.05;;;0.30;;
17157;SDS011;37344;51.948;7.622;2022-07-10T15:43:32;0.82;;;0.40;;
17157;SDS011;37344;51.948;7.622;2022-07-10T15:46:01;1.15;;;0.32;;
17157;SDS011;37344;51.948;7.622;2022-07-10T15:48:29;1.50;;;0.50;;
17157;SDS011;37344;51.948;7.622;2022-07-10T15:50:56;0.47;;;0.32;;
17157;SDS011;37344;51.948;7.622;2022-07-10T15:53:23;0.40;;;0.40;;
17157;SDS011;37344;51.948;7.622;2022-07-10T15:55:51;1.05;;;0.60;;
17157;SDS011;37344;51.948;7.622;2022-07-10T15:58:18;2.90;;;0.63;;
17157;SDS011;37344;51.948;7.622;2022-07-10T16:00:45;3.60;;;0.80;;
17157;SDS011;37344;51.948;7.622;2022-07-10T16:03:14;5.50;;;0.77;;
17157;SDS011;37344;51.948;7.622;2022-07-10T16:05:41;2.55;;;0.90;;
17157;SDS011;37344;51.948;7.622;2022-07-10T16:08:08;2.42;;;0.88;;
17157;SDS011;37344;51.948;7.622;2022-07-10T16:10:36;2.17;;;0.85;;
17157;SDS011;37344;51.948;7.622;2022-07-10T16:13:03;1.42;;;0.90;;
17157;SDS011;37344;51.948;7.622;2022-07-10T16:15:31;1.40;;;0.80;;
17157;SDS011;37344;51.948;7.622;2022-07-10T16:17:58;3.35;;;0.80;;
17157;SDS011;37344;51.948;7.622;2022-07-10T16:20:27;3.00;;;1.00;;
17157;SDS011;37344;51.948;7.622;2022-07-10T16:22:54;1.88;;;1.02;;
17157;SDS011;37344;51.948;7.622;2022-07-10T16:25:21;2.13;;;0.93;;
17157;SDS011;37344;51.948;7.622;2022-07-10T16:28:06;4.55;;;1.10;;
17157;SDS011;37344;51.948;7.622;2022-07-10T16:30:34;2.75;;;0.90;;
17157;SDS011;37344;51.948;7.622;2022-07-10T16:33:01;1.73;;;1.20;;
17157;SDS011;37344;51.948;7.622;2022-07-10T16:35:30;4.05;;;0.90;;
17157;SDS011;37344;51.948;7.622;2022-07-10T16:37:57;2.33;;;1.00;;
17157;SDS011;37344;51.948;7.622;2022-07-10T16:40:24;3.35;;;1.00;;
17157;SDS011;37344;51.948;7.622;2022-07-10T16:42:51;2.72;;;0.90;;
17157;SDS011;37344;51.948;7.622;2022-07-10T16:45:19;2.25;;;0.90;;
17157;SDS011;37344;51.948;7.622;2022-07-10T16:47:46;2.72;;;1.10;;
17157;SDS011;37344;51.948;7.622;2022-07-10T16:50:13;5.47;;;1.00;;
17157;SDS011;37344;51.948;7.622;2022-07-10T16:52:43;4.15;;;1.00;;
17157;SDS011;37344;51.948;7.622;2022-07-10T16:55:10;4.90;;;1.05;;
17157;SDS011;37344;51.948;7.622;2022-07-10T16:57:39;7.35;;;1.25;;
17157;SDS011;37344;51.948;7.622;2022-07-10T17:00:06;3.63;;;0.95;;
17157;SDS011;37344;51.948;7.622;2022-07-10T17:02:34;2.17;;;0.80;;
17157;SDS011;37344;51.948;7.622;2022-07-10T17:05:02;2.15;;;0.70;;
17157;SDS011;37344;51.948;7.622;2022-07-10T17:07:29;1.10;;;0.65;;
17157;SDS011;37344;51.948;7.622;2022-07-10T17:09:58;5.30;;;0.88;;
17157;SDS011;37344;51.948;7.622;2022-07-10T17:12:25;4.82;;;1.13;;
17157;SDS011;37344;51.948;7.622;2022-07-10T17:14:52;3.65;;;0.88;;
17157;SDS011;37344;51.948;7.622;2022-07-10T17:17:20;6.75;;;1.10;;
17157;SDS011;37344;51.948;7.622;2022-07-10T17:19:47;5.60;;;1.00;;
17157;SDS011;37344;51.948;7.622;2022-07-10T17:22:16;5.60;;;0.70;;
17157;SDS011;37344;51.948;7.622;2022-07-10T17:24:43;2.35;;;0.90;;
17157;SDS011;37344;51.948;7.622;2022-07-10T17:27:12;4.10;;;0.80;;
17157;SDS011;37344;51.948;7.622;2022-07-10T17:29:39;4.07;;;1.13;;
17157;SDS011;37344;51.948;7.622;2022-07-10T17:32:06;5.18;;;0.90;;
17157;SDS011;37344;51.948;7.622;2022-07-10T17:34:34;2.03;;;0.93;;
17157;SDS011;37344;51.948;7.622;2022-07-10T17:37:01;6.60;;;1.00;;
17157;SDS011;37344;51.948;7.622;2022-07-10T17:39:29;5.93;;;0.77;;
17157;SDS011;37344;51.948;7.622;2022-07-10T17:41:56;5.85;;;1.00;;
17157;SDS011;37344;51.948;7.622;2022-07-10T17:44:25;9.50;;;2.28;;
17157;SDS011;37344;51.948;7.622;2022-07-10T17:46:53;7.53;;;3.53;;
17157;SDS011;37344;51.948;7.622;2022-07-10T17:49:21;7.50;;;2.25;;
17157;SDS011;37344;51.948;7.622;2022-07-10T17:51:50;9.95;;;2.58;;
17157;SDS011;37344;51.948;7.622;2022-07-10T17:54:18;14.18;;;2.95;;
17157;SDS011;37344;51.948;7.622;2022-07-10T17:56:45;11.90;;;3.10;;
17157;SDS011;37344;51.948;7.622;2022-07-10T17:59:13;10.60;;;3.08;;
17157;SDS011;37344;51.948;7.622;2022-07-10T18:01:41;10.20;;;3.13;;
17157;SDS011;37344;51.948;7.622;2022-07-10T18:04:09;9.77;;;3.22;;
17157;SDS011;37344;51.948;7.622;2022-07-10T18:06:36;7.55;;;2.65;;
17157;SDS011;37344;51.948;7.622;2022-07-10T18:09:03;11.63;;;3.20;;
17157;SDS011;37344;51.948;7.622;2022-07-10T18:11:31;8.77;;;2.70;;
17157;SDS011;37344;51.948;7.622;2022-07-10T18:13:58;8.98;;;3.17;;
17157;SDS011;37344;51.948;7.622;2022-07-10T18:16:25;9.48;;;2.65;;
17157;SDS011;37344;51.948;7.622;2022-07-10T18:18:54;7.00;;;2.65;;
17157;SDS011;37344;51.948;7.622;2022-07-10T18:21:22;8.98;;;2.60;;
17157;SDS011;37344;51.948;7.622;2022-07-10T18:23:50;8.93;;;2.70;;
17157;SDS011;37344;51.948;7.622;2022-07-10T18:26:24;8.30;;;2.40;;
17157;SDS011;37344;51.948;7.622;2022-07-10T18:28:52;10.55;;;2.47;;
17157;SDS011;37344;51.948;7.622;2022-07-10T18:31:19;4.75;;;2.20;;
17157;SDS011;37344;51.948;7.622;2022-07-10T18:33:47;7.78;;;2.60;;
17157;SDS011;37344;51.948;7.622;2022-07-10T18:36:33;6.00;;;2.90;;
17157;SDS011;37344;51.948;7.622;2022-07-10T18:39:00;8.77;;;2.65;;
17157;SDS011;37344;51.948;7.622;2022-07-10T18:41:27;5.65;;;2.45;;
17157;SDS011;37344;51.948;7.622;2022-07-10T18:43:55;8.48;;;2.30;;
17157;SDS011;37344;51.948;7.622;2022-07-10T18:46:22;4.88;;;2.30;;
17157;SDS011;37344;51.948;7.622;2022-07-10T18:48:49;5.60;;;1.90;;
17157;SDS011;37344;51.948;7.622;2022-07-10T18:51:17;5.13;;;1.52;;
17157;SDS011;37344;51.948;7.622;2022-07-10T18:53:46;3.80;;;1.60;;
17157;SDS011;37344;51.948;7.622;2022-07-10T18:56:13;3.90;;;1.42;;
17157;SDS011;37344;51.948;7.622;2022-07-10T18:58:42;4.00;;;1.50;;
17157;SDS011;37344;51.948;7.622;2022-07-10T19:01:10;3.92;;;1.75;;
17157;SDS011;37344;51.948;7.622;2022-07-10T19:03:37;5.28;;;1.42;;
17157;SDS011;37344;51.948;7.622;2022-07-10T19:06:05;3.63;;;1.48;;
17157;SDS011;37344;51.948;7.622;2022-07-10T19:08:32;6.05;;;1.45;;
17157;SDS011;37344;51.948;7.622;2022-07-10T19:11:01;8.98;;;1.77;;
17157;SDS011;37344;51.948;7.622;2022-07-10T19:13:28;4.32;;;1.33;;
17157;SDS011;37344;51.948;7.622;2022-07-10T19:15:56;2.83;;;1.35;;
17157;SDS011;37344;51.948;7.622;2022-07-10T19:18:23;6.03;;;1.40;;
17157;SDS011;37344;51.948;7.622;2022-07-10T19:20:51;4.63;;;1.27;;
17157;SDS011;37344;51.948;7.622;2022-07-10T19:23:19;2.97;;;1.42;;
17157;SDS011;37344;51.948;7.622;2022-07-10T19:25:47;7.55;;;1.77;;
17157;SDS011;37344;51.948;7.622;2022-07-10T19:28:17;4.43;;;1.30;;
17157;SDS011;37344;51.948;7.622;2022-07-10T19:30:45;4.78;;;1.23;;
17157;SDS011;37344;51.948;7.622;2022-07-10T19:33:12;7.00;;;1.38;;
17157;SDS011;37344;51.948;7.622;2022-07-10T19:35:40;4.22;;;1.30;;
17157;SDS011;37344;51.948;7.622;2022-07-10T19:38:07;5.30;;;1.33;;
17157;SDS011;37344;51.948;7.622;2022-07-10T19:40:34;4.63;;;1.20;;
17157;SDS011;37344;51.948;7.622;2022-07-10T19:43:02;4.65;;;1.20;;
17157;SDS011;37344;51.948;7.622;2022-07-10T19:45:30;5.80;;;1.33;;
17157;SDS011;37344;51.948;7.622;2022-07-10T19:47:58;8.88;;;1.20;;
17157;SDS011;37344;51.948;7.622;2022-07-10T19:50:26;3.40;;;1.02;;
17157;SDS011;37344;51.948;7.622;2022-07-10T19:52:54;3.40;;;1.10;;
17157;SDS011;37344;51.948;7.622;2022-07-10T19:55:22;5.18;;;1.20;;
17157;SDS011;37344;51.948;7.622;2022-07-10T19:57:49;4.07;;;1.00;;
17157;SDS011;37344;51.948;7.622;2022-07-10T20:00:20;4.22;;;1.17;;
17157;SDS011;37344;51.948;7.622;2022-07-10T20:02:49;1.77;;;1.00;;
17157;SDS011;37344;51.948;7.622;2022-07-10T20:05:17;3.25;;;1.27;;
17157;SDS011;37344;51.948;7.622;2022-07-10T20:07:44;2.67;;;1.23;;
17157;SDS011;37344;51.948;7.622;2022-07-10T20:10:11;3.58;;;1.27;;
17157;SDS011;37344;51.948;7.622;2022-07-10T20:12:38;3.45;;;1.02;;
17157;SDS011;37344;51.948;7.622;2022-07-10T20:15:06;2.65;;;0.98;;
17157;SDS011;37344;51.948;7.622;2022-07-10T20:17:33;1.65;;;1.00;;
17157;SDS011;37344;51.948;7.622;2022-07-10T20:20:03;4.15;;;1.05;;
17157;SDS011;37344;51.948;7.622;2022-07-10T20:22:30;3.97;;;0.90;;
17157;SDS011;37344;51.948;7.622;2022-07-10T20:24:57;2.08;;;1.30;;
17157;SDS011;37344;51.948;7.622;2022-07-10T20:27:24;3.90;;;1.05;;
17157;SDS011;37344;51.948;7.622;2022-07-10T20:29:52;3.67;;;0.93;;
17157;SDS011;37344;51.948;7.622;2022-07-10T20:32:19;2.95;;;1.10;;
17157;SDS011;37344;51.948;7.622;2022-07-10T20:34:46;6.10;;;1.42;;
17157;SDS011;37344;51.948;7.622;2022-07-10T20:37:15;2.08;;;0.95;;
17157;SDS011;37344;51.948;7.622;2022-07-10T20:40:00;2.60;;;0.95;;